ImprimablePdf
Antwerp, 25/04/2010, BEL - DVV Antwerp Marathon & 10 Miles
Liste des rapports > Marathon - Classement + Video
Recherche: Page: [1] 2 3 4 5 6 7 8
1545 Entrées
 
Les réclamations ne sont plus acceptées, les résultats sont considérés comme définitifs.
Catégorie
PosNrNomAgeIOCTempsTkmMoy.RangNomLocalité
1.4KIMAITO NAHASHONKEN2:12:003:08 19.18-XTéléchargez votre diplome!
2.3KIPKOSGEI LUKEKEN2:14:373:12 18.81-XTéléchargez votre diplome!
3.2LOTIRA DISMASKEN2:17:093:16 18.46-XTéléchargez votre diplome!
4.1VAN GEYTE GINO43BEL2:17:433:16 18.381M40ZWIJNAARDETéléchargez votre diplome!
5.7NEVEN KOEN33BEL2:22:373:23 17.751SEHRIEMSTTéléchargez votre diplome!
6.9TONTCHINSKI VLADEMIR43BEL2:23:573:25 17.592M40KURINGENTéléchargez votre diplome!
7.6BEKKALI OMAR32BEL2:34:073:40 16.432SEHLIEGETéléchargez votre diplome!
8.1000PREIBISCH RALF48NLD2:34:083:40 16.431M45HALSTERENTéléchargez votre diplome!
9.289DEWAELE JOOST36BEL2:36:053:42 16.221M35VICHTETéléchargez votre diplome!
10.669VAN HOECK YVES39BEL2:38:073:45 16.012M35MOERBEKE-WAASTéléchargez votre diplome!
11.770BEIRNAERT THOMAS33BEL2:38:383:46 15.963SEHBEERNEMTéléchargez votre diplome!
12.612RASSCHAERT EDDY43BEL2:39:333:47 15.873M40TOURNAITéléchargez votre diplome!
13.342HARDEE NEIL45WAL2:39:503:48 15.842M45MALPAS, NEWPORTTéléchargez votre diplome!
14.1330STEEMAN KOEN41BEL2:41:443:50 15.654M40BORSBEEK (ANTW.)Téléchargez votre diplome!
15.370LELIAERT ANDY35BEL2:41:483:51 15.653M35NEEROETERENTéléchargez votre diplome!
16.379HENDRICKX JAN51BEL2:42:283:52 15.581M50HOOGSTRATENTéléchargez votre diplome!
17.876PARDAENS KAREL39BEL2:45:203:56 15.314M35HEVERLEETéléchargez votre diplome!
18.378VANDERLINDEN MARC52BEL2:46:523:58 15.172M50BRUXELLESTéléchargez votre diplome!
19.954LUCAS MICHAEL43BEL2:46:533:58 15.175M40BRUXELLESTéléchargez votre diplome!
20.369LAUWEN GINO32BEL2:47:073:58 15.154SEHWESTERLOTéléchargez votre diplome!
21.308MERTENS PAUL48BEL2:47:163:58 15.143M45NIJLENTéléchargez votre diplome!
22.11TAELMAN LUCIEN53BEL2:48:114:00 15.053M50WAREGEMTéléchargez votre diplome!
23.1400DIRCKX LUC41BEL2:48:204:00 15.046M40LIERTéléchargez votre diplome!
24.12RUL KRISTOF38BEL2:48:414:00 15.015M35DEINZETéléchargez votre diplome!
25.635BARTHOLOMEEUSEN ERIC46BEL2:49:184:01 14.964M45BRECHTTéléchargez votre diplome!
26.772VERMOENS PHILIP39BEL2:49:274:01 14.946M35ESSENTéléchargez votre diplome!
27.1072VAN STEEN SVEN44BEL2:49:514:02 14.917M40ZEMSTTéléchargez votre diplome!
28.317VAN CAUTEREN TOON49BEL2:50:044:02 14.895M45ZELETéléchargez votre diplome!
29.337RENS STEFAN42BEL2:50:444:03 14.838M40MORKHOVENTéléchargez votre diplome!
30.48GRILLO PINO44BEL2:51:024:04 14.809M40SCHOTENTéléchargez votre diplome!
31.815DESCAMPS OLIVIER46BEL2:52:064:05 14.716M45GENTTéléchargez votre diplome!
32.990PEETERS RUDY46BEL2:52:214:06 14.697M45TESSENDERLOTéléchargez votre diplome!
33.890SWALENS DIRK47BEL2:53:104:07 14.628M45HASSELTTéléchargez votre diplome!
34.310LEUS FRANKIE48BEL2:53:464:08 14.579M45HERENTHOUTTéléchargez votre diplome!
35.2336VERHEYEN WOUTER25BEL2:53:594:08 14.555SEHRILLAARTéléchargez votre diplome!
36.449SMETS LEO46BEL2:54:224:08 14.5210M45OLENTéléchargez votre diplome!
37.501CHAUHAN HARBANS50BEL2:54:334:09 14.504M50HEVERLEETéléchargez votre diplome!
38.311VERMEIREN DIRK41BEL2:54:364:09 14.5010M40WESTMALLETéléchargez votre diplome!
39.1313VANMARCKE KURT45BEL2:54:394:09 14.5011M45WAREGEMTéléchargez votre diplome!
40.422LIBEER BASTIAAN25BEL2:54:584:09 14.476SEHMECHELENTéléchargez votre diplome!
41.538D'HONDT HERMAN49BEL2:55:424:10 14.4112M45BAZELTéléchargez votre diplome!
42.1270MEEUSEN BART40BEL2:55:464:10 14.4011M40HOOGSTRATENTéléchargez votre diplome!
43.743WARNON BERNARD43BEL2:55:524:11 14.4012M40SINT-STEVENS-WOLUWETéléchargez votre diplome!
44.554DE DECKER PETER46BEL2:56:174:11 14.3613M45WAASMUNSTERTéléchargez votre diplome!
45.816BOGAERTS STEVEN34BEL2:56:434:12 14.337SEHBRECHTTéléchargez votre diplome!
46.677DRIESEN WIM43BEL2:56:504:12 14.3213M40BEERSETéléchargez votre diplome!
47.659NICQUE LUC46BEL2:57:034:12 14.3014M45SINT-NIKLAASTéléchargez votre diplome!
48.845NELISSEN JOHNY38BEL2:57:034:12 14.307M35BREETéléchargez votre diplome!
49.38VAN DE CAUTER Erwin48BEL2:57:144:12 14.2915M45Téléchargez votre diplome!
50.328KANU ALEX41BEL2:57:204:13 14.2814M40ANTWERPEN 1Téléchargez votre diplome!
51.867ROELANDT PATRICK48BEL2:57:214:13 14.2816M45SINT-NIKLAASTéléchargez votre diplome!
52.420VER ELST JAN52BEL2:57:254:13 14.275M50HERSELTTéléchargez votre diplome!
53.1803FESTJENS Peter38BEL2:57:354:13 14.268M35Téléchargez votre diplome!
54.1033BACKAERT DIMITRI42BEL2:57:354:13 14.2615M40MOORSELTéléchargez votre diplome!
55.502DEBLAUWE SERGE45BEL2:57:384:13 14.2517M45ICHTEGEMTéléchargez votre diplome!
56.579HOSTENS IVAN47BEL2:57:394:13 14.2518M45HANDZAMETéléchargez votre diplome!
57.486PHILIPPO JAN45BEL2:57:394:13 14.2519M45KALMTHOUTTéléchargez votre diplome!
58.1277VAN RYSSELBERGHE JOHAN38BEL2:57:404:13 14.259M35LAARNETéléchargez votre diplome!
59.405THEUNISSEN IWAN38NLD2:57:404:13 14.2510M35LANDGRAAFTéléchargez votre diplome!
60.1390VAN RENTERGHEM KWINTEN24BEL2:57:404:13 14.258SEHMARIAKERKETéléchargez votre diplome!
61.982LOMME RONNY40BEL2:57:414:13 14.2516M40ZWIJNAARDETéléchargez votre diplome!
62.622DE VOGELAERE JORIS48BEL2:57:464:13 14.2420M45WAREGEMTéléchargez votre diplome!
63.578GEERTS LUC54BEL2:57:484:13 14.246M50BEVEREN-WAASTéléchargez votre diplome!
64.785VAN CASTER ERIC38GBR2:58:074:14 14.2111M35CHELMSFORDTéléchargez votre diplome!
65.365DE BROUWER GEERT48BEL2:58:114:14 14.2121M45EREMBODEGEMTéléchargez votre diplome!
66.440WATTHY JOHAN43BEL2:58:224:14 14.1917M40GISTELTéléchargez votre diplome!
67.319VAN NIEUWENHOVE JEROEN42BEL2:58:434:15 14.1718M40KESSEL-LOTéléchargez votre diplome!
68.2073NR 2073 XXX2:59:234:16 14.11-Téléchargez votre diplome!
69.1505NUYTS PETER47BEL2:59:284:16 14.1122M45BALENTéléchargez votre diplome!
70.558VAN SPEYBROECK MAURICE53BEL2:59:314:16 14.107M50ERTVELDETéléchargez votre diplome!
71.1366TERMONIA PIET39BEL2:59:324:16 14.1012M35GERAARDSBERGENTéléchargez votre diplome!
72.537KEUPPENS BENNY33BEL2:59:384:16 14.099SEHBEERSETéléchargez votre diplome!
73.1042DAEMS JAN35BEL2:59:394:16 14.0913M35LEUVENTéléchargez votre diplome!
74.594LEROY CHRISTOPHE39BEL2:59:424:16 14.0914M35HALLETéléchargez votre diplome!
75.1242VAN DE WYNGAERT JOS27BEL3:00:014:16 14.0610SEHMERKSEMTéléchargez votre diplome!
76.2265VANHEE MARNIX52BEL3:00:194:17 14.048M50TEMSETéléchargez votre diplome!
77.371VETS DIRK41BEL3:00:314:17 14.0319M40NIJLENTéléchargez votre diplome!
78.617REYNDERS GEERT30BEL3:00:334:17 14.0211SEHBEERSETéléchargez votre diplome!
79.1415JOOS DAVID41BEL3:00:434:17 14.0120M40LEBBEKETéléchargez votre diplome!
80.1097DAEMS ERIK40BEL3:00:544:18 14.0021M40TIELENTéléchargez votre diplome!
81.1293VAN BRUWAENE RUDY58BEL3:01:004:18 13.991M55TIELTTéléchargez votre diplome!
82.1484PERDIEUS VIKTORBEL3:01:304:19 13.95-VORSELAARTéléchargez votre diplome!
83.322VANDEBEEK PATRICK36BEL3:02:284:20 13.8815M35AARSCHOTTéléchargez votre diplome!
84.1108VAN DROOGENBROECK DIRK40BEL3:02:594:21 13.8422M40NINOVETéléchargez votre diplome!
85.329VAN WALLENDAEL WILLY43BEL3:03:034:21 13.8323M40KAPELLEN (ANTW.)Téléchargez votre diplome!
86.504SNOEKS JOS49BEL3:03:134:21 13.8223M45EKSELTéléchargez votre diplome!
87.858VAN HIEL NICO46BEL3:03:164:21 13.8124M45KEERBERGENTéléchargez votre diplome!
88.570FDUPONT ANNE-MARIE37BEL3:03:344:22 13.791F35BLANKENBERGETéléchargez votre diplome!
89.1282DERKS HENKNLD3:03:394:22 13.79-HAARLEMTéléchargez votre diplome!
90.1419AERNOUTS PAUL37BEL3:03:454:22 13.7816M35WUUSTWEZELTéléchargez votre diplome!
91.199WILS GEERT28BEL3:03:464:22 13.7812SEHAARTSELAARTéléchargez votre diplome!
92.1028ROGIER JOSSE51BEL3:04:014:22 13.769M50ROOSDAALTéléchargez votre diplome!
93.782FVAN LEEUWEN LIESBETH46NLD3:04:414:23 13.711F45VOORSCHOTENTéléchargez votre diplome!
94.1516VAN LOOVEREN BART29BEL3:04:444:23 13.7113SEHWUUSTWEZELTéléchargez votre diplome!
95.637NR 637 XXX3:04:574:23 13.69-Téléchargez votre diplome!
96.1806DEMOL Guy57BEL3:04:574:23 13.692M55Téléchargez votre diplome!
97.1363DAUSIMONT MARC40BEL3:05:054:24 13.6824M40BRUXELLES 4Téléchargez votre diplome!
98.1295VAN DE VELDE GUIDO43BEL3:05:174:24 13.6625M40KRUIBEKETéléchargez votre diplome!
99.2408MISSANT BRUNOBEL3:05:254:24 13.65-VICHTETéléchargez votre diplome!
100.628FGUILLEMYN MARIJKE46BEL3:05:304:24 13.652F45POELKAPELLETéléchargez votre diplome!
101.1391ROSE FREDERIC43FRA3:05:414:25 13.6326M40OUTREAUTéléchargez votre diplome!
102.935JACOBS EDDY40BEL3:05:494:25 13.6327M40BUGGENHOUTTéléchargez votre diplome!
103.1182MAES PETER32BEL3:06:084:25 13.6014SEHLANGDORPTéléchargez votre diplome!
104.608GEEROMS KRIS49BEL3:06:124:25 13.6025M45LONDERZEELTéléchargez votre diplome!
105.551WILLEM CORNELIS54BEL3:06:144:25 13.6010M50TERNATTéléchargez votre diplome!
106.559DE PAUW KURT39BEL3:06:144:25 13.6017M35WILLEBROEKTéléchargez votre diplome!
107.1398LINDEKENS ANDRE39BEL3:06:384:26 13.5718M35FOSSES-LA-VILLETéléchargez votre diplome!
108.556LECOK RUBEN30BEL3:06:424:26 13.5615SEHLEUVENTéléchargez votre diplome!
109.1156HERREBOUT STEFAAN39BEL3:06:464:26 13.5619M35SINT-MICHIELSTéléchargez votre diplome!
110.446DEPESTEL POL50BEL3:06:574:26 13.5411M50HERENTHOUTTéléchargez votre diplome!
111.596VAN POEKE YVES42BEL3:07:254:27 13.5128M40LEDETéléchargez votre diplome!
112.1555CORNELIS Filip42BEL3:07:284:27 13.5129M40Téléchargez votre diplome!
113.713MICHIELSE KRISTOF29BEL3:07:404:27 13.4916SEHBRASSCHAATTéléchargez votre diplome!
114.2256VAN EETVELT IVAN40BEL3:07:434:27 13.4930M40VRASENETéléchargez votre diplome!
115.609BLASSON LAURENT31BEL3:07:494:28 13.4817SEHETTERBEEKTéléchargez votre diplome!
116.47DEVRIENDT GUY46BEL3:08:064:28 13.4626M45SCHERPENHEUVELTéléchargez votre diplome!
117.1829PETTEAU Benjamin26BEL3:08:084:28 13.4618SEHTéléchargez votre diplome!
118.1261VAN DEN DRIES PASCAL44BEL3:08:344:29 13.4331M40MECHELENTéléchargez votre diplome!
119.1184KERENS PHILIPPE44BEL3:08:394:29 13.4232M40JEMEPPE-SUR-MEUSETéléchargez votre diplome!
120.879VERMEIR DIRK45BEL3:09:024:29 13.3927M45LONDERZEELTéléchargez votre diplome!
121.1148VAN DER NEUT CHRIS49NLD3:09:084:29 13.3928M45AMSTERDAMTéléchargez votre diplome!
122.2425STEENSSENS HENDRIK47BEL3:09:164:30 13.3829M45TIELRODETéléchargez votre diplome!
123.1038ADEM WOUTER30BEL3:09:184:30 13.3719SEHBRUGGETéléchargez votre diplome!
124.956GOEMAERE GUNTHER33BEL3:09:204:30 13.3720SEHARLONTéléchargez votre diplome!
125.1544JOSEPH BERNARD48BEL3:09:204:30 13.3730M45RHODE-SAINT-GENESETéléchargez votre diplome!
126.2252LESDANON FREDERIC45BEL3:09:254:30 13.3731M45SINT NIKLAASTéléchargez votre diplome!
127.565BOUSSAERT DENIS52FRA3:09:424:30 13.3512M50ONNAINGTéléchargez votre diplome!
128.1421JACOBS ROEL36BEL3:09:514:30 13.3420M35ARENDONKTéléchargez votre diplome!
129.953AMELOOT FREDERIK33BEL3:09:564:31 13.3321SEHOOSTENDETéléchargez votre diplome!
130.988BAETENS MARCO41BEL3:10:194:31 13.3033M40WILRIJKTéléchargez votre diplome!
131.1251SONDERGAARD PETER38BEL3:10:204:31 13.3021M35SCHAARBEEKTéléchargez votre diplome!
132.818MEERS VINCENT37BEL3:10:414:32 13.2822M35GENTBRUGGETéléchargez votre diplome!
133.2260DE BRUYNE JAN45BEL3:10:504:32 13.2732M45BEVERENTéléchargez votre diplome!
134.1153BEEKEN WALTHER60BEL3:10:514:32 13.271M60LIEDEKERKETéléchargez votre diplome!
135.108FWENZL CHRISTINE29AUT3:11:064:32 13.251SEFLEOBENTéléchargez votre diplome!
136.639CRAEYNEST JEAN-MARC41BEL3:11:084:32 13.2534M40BRUXELLES 8Téléchargez votre diplome!
137.228VANHEE KOBE33BEL3:11:154:32 13.2422SEHDEINZETéléchargez votre diplome!
138.848WAGEMANS STEFAN39BEL3:11:174:32 13.2423M35LICHTAARTTéléchargez votre diplome!
139.2020PRESUTTI Francesco48BEL3:11:194:33 13.2333M45Téléchargez votre diplome!
140.2381DE VREESE WIM35BEL3:11:254:33 13.2324M35GENTTéléchargez votre diplome!
141.273SIJBENS LUDO55BEL3:11:444:33 13.213M55ALKENTéléchargez votre diplome!
142.1268DENDAL DIDIER47BEL3:11:444:33 13.2034M45LIEGE 1Téléchargez votre diplome!
143.1175RIVET JEAN FRANCOIS36FRA3:11:514:33 13.2025M35WIMEREUXTéléchargez votre diplome!
144.834DAUTREVAUX DAVID40FRA3:11:524:33 13.2035M40SAMERTéléchargez votre diplome!
145.2083MATTHYS Wim39BEL3:11:544:33 13.1926M35Téléchargez votre diplome!
146.1290VAN GIEL GEERTBEL3:11:574:33 13.19-RANSTTéléchargez votre diplome!
147.593SCHILDERMANS BART43BEL3:12:134:34 13.1736M40OPOETERENTéléchargez votre diplome!
148.1288NICASI MARC47BEL3:12:214:34 13.1635M45LIERTéléchargez votre diplome!
149.1511PACKOLET WALTER54BEL3:12:594:35 13.1213M50ANTWERPEN 2Téléchargez votre diplome!
150.685PEIJNENBORG ERIC33NLD3:13:024:35 13.1223SEHOISTERWIJKTéléchargez votre diplome!
151.863CARDON ERIC46BEL3:13:094:35 13.1136M45ZELETéléchargez votre diplome!
152.1498BORZEE CHRISTOPHE32BEL3:13:104:35 13.1124SEHECAUSSINNESTéléchargez votre diplome!
153.808FBOURQUIN LINDA47BEL3:13:134:35 13.103F45PONT-A-CELLESTéléchargez votre diplome!
154.1063BOEYE LUC48BEL3:13:184:35 13.1037M45ANTWERPEN WILRIJKTéléchargez votre diplome!
155.804EMMERIG ROB55NLD3:13:254:36 13.094M55ASSENDELFTTéléchargez votre diplome!
156.514VANDEVENNE BART34BEL3:13:294:36 13.0925SEHWINKSELETéléchargez votre diplome!
157.1512ROELS WERNER32BEL3:13:314:36 13.0826SEHEKEREN (ANTWERPEN)Téléchargez votre diplome!
158.484DOMS DIETER28BEL3:13:424:36 13.0727SEHWAARLOOSTéléchargez votre diplome!
159.1388LEUSE RONNY45BEL3:13:444:36 13.0738M45LAAKDALTéléchargez votre diplome!
160.870WILLEMS PETER46BEL3:13:504:36 13.0639M45ZONHOVENTéléchargez votre diplome!
161.614BEYNS ROBERT50BEL3:13:514:36 13.0614M50HAMTéléchargez votre diplome!
162.2341VAN WESENBEECK HERMAN49BEL3:13:534:36 13.0640M45KALMTHOUTTéléchargez votre diplome!
163.798LAMBRECHTS KRIS42BEL3:13:534:36 13.0637M40WIJGMAAL (BT.)Téléchargez votre diplome!
164.2094FLOREZ DROOP Manuel51BEL3:14:004:36 13.0515M50Téléchargez votre diplome!
165.771DIERICK DIRK50BEL3:14:014:36 13.0516M50POELKAPELLETéléchargez votre diplome!
166.509WIJNEN YVES35BEL3:14:064:37 13.0427M35MAASMECHELENTéléchargez votre diplome!
167.753SPEELMANS STEFAN48BEL3:14:144:37 13.0341M45DIESTTéléchargez votre diplome!
168.2385MICHIELS STEVEN28BEL3:14:144:37 13.0328SEHGENTTéléchargez votre diplome!
169.2317VAN HAUWERMEIREN MARC49BEL3:14:264:37 13.0242M45BERLARETéléchargez votre diplome!
170.1026DE BACKER WILLY52BEL3:14:294:37 13.0217M50BERLARETéléchargez votre diplome!
171.215HOOGEWIJS TOM39BEL3:14:294:37 13.0228M35LONDERZEELTéléchargez votre diplome!
172.1105DEHAIRS DAVID37BEL3:14:394:37 13.0129M35VILVOORDETéléchargez votre diplome!
173.581D'HAENE OLIVIER40BEL3:14:404:37 13.0138M40KOEKELARETéléchargez votre diplome!
174.1051FLERATE VINCIANNE43BEL3:14:484:37 13.001F40NIVELLESTéléchargez votre diplome!
175.35CLOOSTERMANS PIETER-JAN24BEL3:14:534:38 12.9929SEHHEUSDEN-ZOLDERTéléchargez votre diplome!
176.2329CLAUS JEAN-PIERRE51BEL3:15:004:38 12.9818M50GENTTéléchargez votre diplome!
177.802JANSSEN GUNTER42BEL3:15:024:38 12.9839M40RETIETéléchargez votre diplome!
178.755DE SCHRIJVER HENDRIK55BEL3:15:034:38 12.985M55AALSTTéléchargez votre diplome!
179.1456DOMS TOM34BEL3:15:044:38 12.9830SEHBONHEIDENTéléchargez votre diplome!
180.803KESTEK KERIM49BEL3:15:054:38 12.9843M45BRUXELLES 15Téléchargez votre diplome!
181.1418THOELEN JOS51BEL3:15:054:38 12.9819M50KURINGENTéléchargez votre diplome!
182.582VANDENBROUCKE CHRIST39BEL3:15:074:38 12.9830M35MOORSELETéléchargez votre diplome!
183.434BEDOUET YANN41BEL3:15:114:38 12.9740M40FRANCETéléchargez votre diplome!
184.1538DEBOUVER Danny47BEL3:15:194:38 12.9644M45Téléchargez votre diplome!
185.2050VANDERINDEN Robbi45BEL3:15:224:38 12.9645M45Téléchargez votre diplome!
186.1259KUYSTERMANS TOM36BEL3:15:284:38 12.9531M35BLANKENBERGETéléchargez votre diplome!
187.826PATTYN DOMINIQUE41BEL3:15:314:39 12.9541M40INGELMUNSTERTéléchargez votre diplome!
188.1142VAN FRAEYENHOVEN BENNY51BEL3:15:354:39 12.9420M50HOVETéléchargez votre diplome!
189.832VERVUEREN STEVE36BEL3:15:364:39 12.9432M35VILVOORDETéléchargez votre diplome!
190.2018ALESSIO Betti48BEL3:15:364:39 12.9446M45Téléchargez votre diplome!
191.1279GEUNS PATRICK49BEL3:15:454:39 12.9347M45MEEUWEN-GRUITRODETéléchargez votre diplome!
192.1161MERTENS BART32BEL3:16:054:39 12.9131SEHTURNHOUTTéléchargez votre diplome!
193.1847ORYE Jan47BEL3:16:154:40 12.9048M45Téléchargez votre diplome!
194.740MOERMANS GERT32BEL3:16:194:40 12.9032SEHHOUTHALENTéléchargez votre diplome!
195.1376VERBIEST ERIC44BEL3:16:244:40 12.8942M40MORTSELTéléchargez votre diplome!
196.874DE GEEST TOMMY33BEL3:16:464:40 12.8733SEHWILRIJKTéléchargez votre diplome!
197.2364EMBRECHTS KURT40BEL3:16:584:41 12.8543M40ZANDHOVEN (PULLE)Téléchargez votre diplome!
198.825VERHAEGEN PAUL49BEL3:16:584:41 12.8549M45KONTICHTéléchargez votre diplome!
199.496STOFMEEL MICHA39BEL3:16:584:41 12.8533M35HERENTHOUTTéléchargez votre diplome!
200.2383UYTTENDAELE FRANCOIS60BEL3:17:044:41 12.852M60ZELZATETéléchargez votre diplome!
DNF: abandon; DSQ: disqualifié; Vitesse en km/h
ChronoRace - Electronic Timing - www.chronorace.be